sensor_id;sensor_type;location;lat;lon;timestamp;pressure;altitude;pressure_sealevel;temperature;humidity
7832;BME280;3961;42.058;25.586;2023-11-18T00:01:15;99474.88;;;11.23;100.00
7832;BME280;3961;42.058;25.586;2023-11-18T00:03:41;99452.22;;;11.23;100.00
7832;BME280;3961;42.058;25.586;2023-11-18T00:06:06;99465.38;;;11.26;100.00
7832;BME280;3961;42.058;25.586;2023-11-18T00:08:33;99460.59;;;11.33;100.00
7832;BME280;3961;42.058;25.586;2023-11-18T00:10:59;99474.13;;;11.39;100.00
7832;BME280;3961;42.058;25.586;2023-11-18T00:13:24;99463.19;;;11.39;100.00
7832;BME280;3961;42.058;25.586;2023-11-18T00:15:52;99475.03;;;11.45;100.00
7832;BME280;3961;42.058;25.586;2023-11-18T00:18:17;99453.59;;;11.37;100.00
7832;BME280;3961;42.058;25.586;2023-11-18T00:20:45;99438.91;;;11.26;100.00
7832;BME280;3961;42.058;25.586;2023-11-18T00:23:11;99464.59;;;11.42;100.00
7832;BME280;3961;42.058;25.586;2023-11-18T00:25:36;99460.97;;;11.36;100.00
7832;BME280;3961;42.058;25.586;2023-11-18T00:28:05;99463.69;;;11.36;100.00
7832;BME280;3961;42.058;25.586;2023-11-18T00:30:33;99459.97;;;11.42;100.00
7832;BME280;3961;42.058;25.586;2023-11-18T00:32:59;99473.38;;;11.44;100.00
7832;BME280;3961;42.058;25.586;2023-11-18T00:35:24;99461.31;;;11.40;100.00
7832;BME280;3961;42.058;25.586;2023-11-18T00:37:50;99471.97;;;11.41;100.00
7832;BME280;3961;42.058;25.586;2023-11-18T00:40:15;99465.78;;;11.46;100.00
7832;BME280;3961;42.058;25.586;2023-11-18T00:42:44;99460.53;;;11.56;100.00
7832;BME280;3961;42.058;25.586;2023-11-18T00:45:11;99471.91;;;11.53;100.00
7832;BME280;3961;42.058;25.586;2023-11-18T00:47:38;99467.47;;;11.47;100.00
7832;BME280;3961;42.058;25.586;2023-11-18T00:50:04;99475.16;;;11.50;100.00
7832;BME280;3961;42.058;25.586;2023-11-18T00:52:33;99480.94;;;11.54;100.00
7832;BME280;3961;42.058;25.586;2023-11-18T00:54:59;99477.63;;;11.52;100.00
7832;BME280;3961;42.058;25.586;2023-11-18T00:57:26;99460.06;;;11.48;100.00
7832;BME280;3961;42.058;25.586;2023-11-18T00:59:52;99487.47;;;11.53;100.00
7832;BME280;3961;42.058;25.586;2023-11-18T01:02:18;99483.66;;;11.54;100.00
7832;BME280;3961;42.058;25.586;2023-11-18T01:04:44;99481.91;;;11.48;100.00
7832;BME280;3961;42.058;25.586;2023-11-18T01:07:12;99471.34;;;11.51;100.00
7832;BME280;3961;42.058;25.586;2023-11-18T01:09:38;99471.25;;;11.46;100.00
7832;BME280;3961;42.058;25.586;2023-11-18T01:12:04;99470.53;;;11.51;100.00
7832;BME280;3961;42.058;25.586;2023-11-18T01:14:31;99468.03;;;11.49;100.00
7832;BME280;3961;42.058;25.586;2023-11-18T01:16:57;99465.28;;;11.49;100.00
7832;BME280;3961;42.058;25.586;2023-11-18T01:19:22;99454.50;;;11.42;100.00
7832;BME280;3961;42.058;25.586;2023-11-18T01:21:49;99458.78;;;11.50;100.00
7832;BME280;3961;42.058;25.586;2023-11-18T01:24:15;99451.50;;;11.56;100.00
7832;BME280;3961;42.058;25.586;2023-11-18T01:26:41;99457.81;;;11.56;100.00
7832;BME280;3961;42.058;25.586;2023-11-18T01:29:07;99452.63;;;11.43;100.00
7832;BME280;3961;42.058;25.586;2023-11-18T01:31:33;99466.97;;;11.50;100.00
7832;BME280;3961;42.058;25.586;2023-11-18T01:33:58;99472.41;;;11.50;100.00
7832;BME280;3961;42.058;25.586;2023-11-18T01:36:25;99475.75;;;11.52;100.00
7832;BME280;3961;42.058;25.586;2023-11-18T01:38:50;99463.44;;;11.38;100.00
7832;BME280;3961;42.058;25.586;2023-11-18T01:41:16;99466.06;;;11.33;100.00
7832;BME280;3961;42.058;25.586;2023-11-18T01:43:46;99471.97;;;11.41;100.00
7832;BME280;3961;42.058;25.586;2023-11-18T01:46:12;99468.75;;;11.44;100.00
7832;BME280;3961;42.058;25.586;2023-11-18T01:48:39;99455.25;;;11.38;100.00
7832;BME280;3961;42.058;25.586;2023-11-18T01:51:08;99457.00;;;11.44;100.00
7832;BME280;3961;42.058;25.586;2023-11-18T01:53:38;99451.41;;;11.51;100.00
7832;BME280;3961;42.058;25.586;2023-11-18T01:56:06;99450.59;;;11.50;100.00
7832;BME280;3961;42.058;25.586;2023-11-18T01:58:33;99437.06;;;11.43;100.00
7832;BME280;3961;42.058;25.586;2023-11-18T02:01:02;99429.72;;;11.44;100.00
7832;BME280;3961;42.058;25.586;2023-11-18T02:03:27;99435.09;;;11.39;100.00
7832;BME280;3961;42.058;25.586;2023-11-18T02:05:53;99429.28;;;11.35;100.00
7832;BME280;3961;42.058;25.586;2023-11-18T02:08:19;99406.78;;;11.28;100.00
7832;BME280;3961;42.058;25.586;2023-11-18T02:10:47;99382.94;;;11.24;100.00
7832;BME280;3961;42.058;25.586;2023-11-18T02:13:28;99423.63;;;11.54;100.00
7832;BME280;3961;42.058;25.586;2023-11-18T02:15:56;99430.75;;;11.55;100.00
7832;BME280;3961;42.058;25.586;2023-11-18T02:18:26;99421.72;;;11.54;100.00
7832;BME280;3961;42.058;25.586;2023-11-18T02:20:57;99424.34;;;11.49;100.00
7832;BME280;3961;42.058;25.586;2023-11-18T02:23:23;99416.78;;;11.51;100.00
7832;BME280;3961;42.058;25.586;2023-11-18T02:25:49;99422.47;;;11.50;100.00
7832;BME280;3961;42.058;25.586;2023-11-18T02:28:15;99421.31;;;11.46;100.00
7832;BME280;3961;42.058;25.586;2023-11-18T02:30:41;99419.53;;;11.39;100.00
7832;BME280;3961;42.058;25.586;2023-11-18T02:33:58;99437.28;;;11.25;100.00
7832;BME280;3961;42.058;25.586;2023-11-18T02:36:31;99461.22;;;11.23;100.00
7832;BME280;3961;42.058;25.586;2023-11-18T02:39:04;99458.88;;;11.15;100.00
7832;BME280;3961;42.058;25.586;2023-11-18T02:41:34;99444.66;;;11.13;100.00
7832;BME280;3961;42.058;25.586;2023-11-18T02:44:02;99449.25;;;11.24;100.00
7832;BME280;3961;42.058;25.586;2023-11-18T02:46:29;99450.91;;;11.25;100.00
7832;BME280;3961;42.058;25.586;2023-11-18T02:48:54;99449.94;;;11.31;100.00
7832;BME280;3961;42.058;25.586;2023-11-18T02:51:20;99444.72;;;11.30;100.00
7832;BME280;3961;42.058;25.586;2023-11-18T02:53:46;99442.00;;;11.30;100.00
7832;BME280;3961;42.058;25.586;2023-11-18T02:56:11;99440.56;;;11.27;100.00
7832;BME280;3961;42.058;25.586;2023-11-18T02:58:37;99421.78;;;11.02;100.00
7832;BME280;3961;42.058;25.586;2023-11-18T03:01:03;99447.38;;;11.13;100.00
7832;BME280;3961;42.058;25.586;2023-11-18T03:03:30;99437.28;;;11.14;100.00
7832;BME280;3961;42.058;25.586;2023-11-18T03:05:55;99446.22;;;11.09;100.00
7832;BME280;3961;42.058;25.586;2023-11-18T03:08:21;99436.03;;;10.93;100.00
7832;BME280;3961;42.058;25.586;2023-11-18T03:10:47;99418.34;;;10.95;100.00
7832;BME280;3961;42.058;25.586;2023-11-18T03:13:12;99429.63;;;10.99;100.00
7832;BME280;3961;42.058;25.586;2023-11-18T03:15:38;99434.09;;;11.05;100.00
7832;BME280;3961;42.058;25.586;2023-11-18T03:18:03;99430.47;;;10.99;100.00
7832;BME280;3961;42.058;25.586;2023-11-18T03:20:31;99420.16;;;10.90;100.00
7832;BME280;3961;42.058;25.586;2023-11-18T03:23:00;99410.34;;;10.89;100.00
7832;BME280;3961;42.058;25.586;2023-11-18T03:25:28;99405.66;;;11.01;100.00
7832;BME280;3961;42.058;25.586;2023-11-18T03:27:54;99418.94;;;11.09;100.00
7832;BME280;3961;42.058;25.586;2023-11-18T03:30:20;99430.41;;;11.11;100.00
7832;BME280;3961;42.058;25.586;2023-11-18T03:32:45;99445.59;;;11.07;100.00
7832;BME280;3961;42.058;25.586;2023-11-18T03:35:11;99446.00;;;10.99;100.00
7832;BME280;3961;42.058;25.586;2023-11-18T03:37:40;99442.06;;;10.95;100.00
7832;BME280;3961;42.058;25.586;2023-11-18T03:40:10;99438.06;;;10.86;100.00
7832;BME280;3961;42.058;25.586;2023-11-18T03:42:37;99431.88;;;10.79;100.00
7832;BME280;3961;42.058;25.586;2023-11-18T03:45:03;99436.44;;;10.62;100.00
7832;BME280;3961;42.058;25.586;2023-11-18T03:47:29;99451.72;;;10.63;100.00
7832;BME280;3961;42.058;25.586;2023-11-18T03:49:56;99437.84;;;10.52;100.00
7832;BME280;3961;42.058;25.586;2023-11-18T03:52:22;99445.19;;;10.64;100.00
7832;BME280;3961;42.058;25.586;2023-11-18T03:54:48;99443.53;;;10.63;100.00
7832;BME280;3961;42.058;25.586;2023-11-18T03:57:14;99435.94;;;10.65;100.00
7832;BME280;3961;42.058;25.586;2023-11-18T03:59:39;99437.16;;;10.57;100.00
7832;BME280;3961;42.058;25.586;2023-11-18T04:02:07;99443.28;;;10.64;100.00
7832;BME280;3961;42.058;25.586;2023-11-18T04:04:33;99455.97;;;10.58;100.00
7832;BME280;3961;42.058;25.586;2023-11-18T04:06:59;99469.47;;;10.53;100.00
7832;BME280;3961;42.058;25.586;2023-11-18T04:09:27;99469.22;;;10.43;100.00
7832;BME280;3961;42.058;25.586;2023-11-18T04:11:52;99479.88;;;10.33;100.00
7832;BME280;3961;42.058;25.586;2023-11-18T04:14:18;99475.25;;;10.22;100.00
7832;BME280;3961;42.058;25.586;2023-11-18T04:16:45;99455.28;;;10.10;100.00
7832;BME280;3961;42.058;25.586;2023-11-18T04:19:11;99473.22;;;10.18;100.00
7832;BME280;3961;42.058;25.586;2023-11-18T04:21:37;99448.22;;;10.09;100.00
7832;BME280;3961;42.058;25.586;2023-11-18T04:24:03;99460.88;;;10.03;100.00
7832;BME280;3961;42.058;25.586;2023-11-18T04:26:31;99459.41;;;10.01;100.00
7832;BME280;3961;42.058;25.586;2023-11-18T04:28:57;99448.31;;;10.02;100.00
7832;BME280;3961;42.058;25.586;2023-11-18T04:31:22;99439.63;;;9.82;100.00
7832;BME280;3961;42.058;25.586;2023-11-18T04:33:48;99434.88;;;9.78;100.00
7832;BME280;3961;42.058;25.586;2023-11-18T04:36:14;99426.50;;;9.49;100.00
7832;BME280;3961;42.058;25.586;2023-11-18T04:38:42;99422.63;;;9.57;100.00
7832;BME280;3961;42.058;25.586;2023-11-18T04:41:09;99445.50;;;9.67;100.00
7832;BME280;3961;42.058;25.586;2023-11-18T04:43:34;99422.97;;;9.60;100.00
7832;BME280;3961;42.058;25.586;2023-11-18T04:46:00;99459.81;;;9.74;100.00
7832;BME280;3961;42.058;25.586;2023-11-18T04:48:26;99476.09;;;9.63;100.00
7832;BME280;3961;42.058;25.586;2023-11-18T04:50:51;99456.19;;;9.51;100.00
7832;BME280;3961;42.058;25.586;2023-11-18T04:53:17;99507.81;;;9.69;100.00
7832;BME280;3961;42.058;25.586;2023-11-18T04:55:42;99499.31;;;9.47;100.00
7832;BME280;3961;42.058;25.586;2023-11-18T04:58:08;99516.47;;;9.48;100.00
7832;BME280;3961;42.058;25.586;2023-11-18T05:00:38;99508.84;;;9.38;100.00
7832;BME280;3961;42.058;25.586;2023-11-18T05:03:04;99487.72;;;9.22;100.00
7832;BME280;3961;42.058;25.586;2023-11-18T05:05:31;99460.53;;;9.22;100.00
7832;BME280;3961;42.058;25.586;2023-11-18T05:07:57;99480.53;;;9.27;100.00
7832;BME280;3961;42.058;25.586;2023-11-18T05:10:23;99490.81;;;9.25;100.00
7832;BME280;3961;42.058;25.586;2023-11-18T05:12:49;99479.03;;;9.31;100.00
7832;BME280;3961;42.058;25.586;2023-11-18T05:15:21;99479.63;;;9.33;100.00
7832;BME280;3961;42.058;25.586;2023-11-18T05:17:53;99471.94;;;9.30;100.00
7832;BME280;3961;42.058;25.586;2023-11-18T05:20:19;99474.41;;;9.32;100.00
7832;BME280;3961;42.058;25.586;2023-11-18T05:22:44;99472.09;;;9.36;100.00
7832;BME280;3961;42.058;25.586;2023-11-18T05:25:10;99479.56;;;9.40;100.00
7832;BME280;3961;42.058;25.586;2023-11-18T05:27:36;99476.50;;;9.48;100.00
7832;BME280;3961;42.058;25.586;2023-11-18T05:30:02;99482.84;;;9.42;100.00
7832;BME280;3961;42.058;25.586;2023-11-18T05:32:29;99461.97;;;9.24;100.00
7832;BME280;3961;42.058;25.586;2023-11-18T05:34:55;99474.44;;;9.14;100.00
7832;BME280;3961;42.058;25.586;2023-11-18T05:37:23;99485.31;;;9.14;100.00
7832;BME280;3961;42.058;25.586;2023-11-18T05:39:49;99483.34;;;9.03;100.00
7832;BME280;3961;42.058;25.586;2023-11-18T05:42:24;99470.81;;;9.02;100.00
7832;BME280;3961;42.058;25.586;2023-11-18T05:44:51;99460.06;;;8.88;100.00
7832;BME280;3961;42.058;25.586;2023-11-18T05:47:23;99458.06;;;9.02;100.00
7832;BME280;3961;42.058;25.586;2023-11-18T05:49:49;99459.63;;;9.10;100.00
7832;BME280;3961;42.058;25.586;2023-11-18T05:52:14;99474.66;;;9.12;100.00
7832;BME280;3961;42.058;25.586;2023-11-18T05:54:40;99486.31;;;9.19;100.00
7832;BME280;3961;42.058;25.586;2023-11-18T05:57:05;99493.16;;;9.22;100.00
7832;BME280;3961;42.058;25.586;2023-11-18T05:59:31;99491.19;;;9.11;100.00
7832;BME280;3961;42.058;25.586;2023-11-18T06:01:56;99493.75;;;9.06;100.00
7832;BME280;3961;42.058;25.586;2023-11-18T06:04:22;99483.56;;;9.01;100.00
7832;BME280;3961;42.058;25.586;2023-11-18T06:06:47;99488.47;;;8.93;100.00
7832;BME280;3961;42.058;25.586;2023-11-18T06:09:13;99488.22;;;8.76;100.00
7832;BME280;3961;42.058;25.586;2023-11-18T06:11:47;99475.00;;;8.61;100.00
7832;BME280;3961;42.058;25.586;2023-11-18T06:14:12;99495.66;;;8.62;100.00
7832;BME280;3961;42.058;25.586;2023-11-18T06:16:38;99502.41;;;8.60;100.00
7832;BME280;3961;42.058;25.586;2023-11-18T06:19:06;99488.81;;;8.60;100.00
7832;BME280;3961;42.058;25.586;2023-11-18T06:21:31;99491.38;;;8.55;100.00
7832;BME280;3961;42.058;25.586;2023-11-18T06:24:00;99492.78;;;8.57;100.00
7832;BME280;3961;42.058;25.586;2023-11-18T06:26:26;99491.16;;;8.56;100.00
7832;BME280;3961;42.058;25.586;2023-11-18T06:28:54;99493.47;;;8.53;100.00
7832;BME280;3961;42.058;25.586;2023-11-18T06:31:20;99475.78;;;8.43;100.00
7832;BME280;3961;42.058;25.586;2023-11-18T06:33:47;99475.50;;;8.52;100.00
7832;BME280;3961;42.058;25.586;2023-11-18T06:38:38;99475.91;;;8.30;100.00
7832;BME280;3961;42.058;25.586;2023-11-18T06:41:06;99484.81;;;8.37;100.00
7832;BME280;3961;42.058;25.586;2023-11-18T06:43:37;99470.28;;;8.25;100.00
7832;BME280;3961;42.058;25.586;2023-11-18T06:46:14;99478.81;;;8.29;100.00
7832;BME280;3961;42.058;25.586;2023-11-18T06:48:40;99466.44;;;8.39;100.00
7832;BME280;3961;42.058;25.586;2023-11-18T06:51:06;99460.03;;;8.27;100.00
7832;BME280;3961;42.058;25.586;2023-11-18T06:53:34;99476.91;;;8.36;100.00
7832;BME280;3961;42.058;25.586;2023-11-18T06:56:00;99472.41;;;8.23;100.00
7832;BME280;3961;42.058;25.586;2023-11-18T06:58:25;99496.56;;;8.31;100.00
7832;BME280;3961;42.058;25.586;2023-11-18T07:00:52;99496.56;;;8.31;100.00
7832;BME280;3961;42.058;25.586;2023-11-18T07:03:18;99496.56;;;8.31;100.00
7832;BME280;3961;42.058;25.586;2023-11-18T07:05:43;99504.28;;;8.34;100.00
7832;BME280;3961;42.058;25.586;2023-11-18T07:08:09;99497.78;;;8.35;100.00
7832;BME280;3961;42.058;25.586;2023-11-18T07:10:35;99502.94;;;8.43;100.00
7832;BME280;3961;42.058;25.586;2023-11-18T07:13:03;99504.22;;;8.41;100.00
7832;BME280;3961;42.058;25.586;2023-11-18T07:15:29;99503.00;;;8.37;100.00
7832;BME280;3961;42.058;25.586;2023-11-18T07:17:54;99506.34;;;8.39;100.00
7832;BME280;3961;42.058;25.586;2023-11-18T07:20:20;99495.25;;;8.40;100.00
7832;BME280;3961;42.058;25.586;2023-11-18T07:22:46;99500.03;;;8.45;100.00
7832;BME280;3961;42.058;25.586;2023-11-18T07:25:11;99496.81;;;8.30;100.00
7832;BME280;3961;42.058;25.586;2023-11-18T07:27:38;99488.66;;;8.30;100.00
7832;BME280;3961;42.058;25.586;2023-11-18T07:30:04;99486.56;;;8.25;100.00
7832;BME280;3961;42.058;25.586;2023-11-18T07:32:35;99473.94;;;8.13;100.00
7832;BME280;3961;42.058;25.586;2023-11-18T07:35:01;99477.00;;;8.23;100.00
7832;BME280;3961;42.058;25.586;2023-11-18T07:37:27;99467.63;;;8.19;100.00
7832;BME280;3961;42.058;25.586;2023-11-18T07:39:52;99455.06;;;8.24;100.00
7832;BME280;3961;42.058;25.586;2023-11-18T07:42:20;99456.09;;;8.23;100.00
7832;BME280;3961;42.058;25.586;2023-11-18T07:44:46;99452.19;;;8.19;100.00
7832;BME280;3961;42.058;25.586;2023-11-18T07:47:13;99459.75;;;8.11;100.00
7832;BME280;3961;42.058;25.586;2023-11-18T07:49:41;99463.13;;;8.06;100.00
7832;BME280;3961;42.058;25.586;2023-11-18T07:52:07;99464.78;;;8.07;100.00
7832;BME280;3961;42.058;25.586;2023-11-18T07:54:32;99431.56;;;8.12;100.00
7832;BME280;3961;42.058;25.586;2023-11-18T07:56:58;99408.91;;;7.99;100.00
7832;BME280;3961;42.058;25.586;2023-11-18T07:59:24;99437.16;;;8.17;100.00
7832;BME280;3961;42.058;25.586;2023-11-18T08:01:50;99433.97;;;8.20;100.00
7832;BME280;3961;42.058;25.586;2023-11-18T08:04:15;99418.00;;;8.12;100.00
7832;BME280;3961;42.058;25.586;2023-11-18T08:06:42;99405.09;;;8.32;100.00
7832;BME280;3961;42.058;25.586;2023-11-18T08:09:11;99426.44;;;8.46;100.00
7832;BME280;3961;42.058;25.586;2023-11-18T08:11:39;99442.75;;;8.46;100.00
7832;BME280;3961;42.058;25.586;2023-11-18T08:14:10;99446.13;;;8.42;100.00
7832;BME280;3961;42.058;25.586;2023-11-18T08:16:35;99443.69;;;8.59;100.00
7832;BME280;3961;42.058;25.586;2023-11-18T08:19:01;99443.31;;;8.55;100.00
7832;BME280;3961;42.058;25.586;2023-11-18T08:21:28;99452.44;;;8.61;100.00
7832;BME280;3961;42.058;25.586;2023-11-18T08:23:54;99449.44;;;8.69;100.00
7832;BME280;3961;42.058;25.586;2023-11-18T08:26:19;99455.47;;;8.89;100.00
7832;BME280;3961;42.058;25.586;2023-11-18T08:28:45;99443.78;;;9.07;100.00
7832;BME280;3961;42.058;25.586;2023-11-18T08:31:13;99456.63;;;9.18;100.00
7832;BME280;3961;42.058;25.586;2023-11-18T08:33:41;99454.72;;;9.18;100.00
7832;BME280;3961;42.058;25.586;2023-11-18T08:36:06;99460.22;;;9.30;100.00
7832;BME280;3961;42.058;25.586;2023-11-18T08:38:33;99452.06;;;9.30;100.00
7832;BME280;3961;42.058;25.586;2023-11-18T08:40:58;99447.91;;;9.27;100.00
7832;BME280;3961;42.058;25.586;2023-11-18T08:43:24;99458.03;;;9.39;100.00
7832;BME280;3961;42.058;25.586;2023-11-18T08:45:50;99468.75;;;9.33;99.49
7832;BME280;3961;42.058;25.586;2023-11-18T08:48:16;99476.28;;;9.31;98.86
7832;BME280;3961;42.058;25.586;2023-11-18T08:50:43;99476.84;;;9.40;100.00
7832;BME280;3961;42.058;25.586;2023-11-18T08:53:10;99469.22;;;9.30;98.81
7832;BME280;3961;42.058;25.586;2023-11-18T08:55:37;99464.91;;;9.23;100.00
7832;BME280;3961;42.058;25.586;2023-11-18T08:58:07;99457.88;;;9.33;99.76
7832;BME280;3961;42.058;25.586;2023-11-18T09:00:55;99412.00;;;9.07;97.92
7832;BME280;3961;42.058;25.586;2023-11-18T09:03:22;99456.28;;;9.26;99.19
7832;BME280;3961;42.058;25.586;2023-11-18T09:06:01;99449.72;;;9.15;98.03
7832;BME280;3961;42.058;25.586;2023-11-18T09:08:33;99452.22;;;9.17;99.03
7832;BME280;3961;42.058;25.586;2023-11-18T09:11:11;99438.72;;;9.10;97.92
7832;BME280;3961;42.058;25.586;2023-11-18T09:13:43;99445.59;;;9.13;96.42
7832;BME280;3961;42.058;25.586;2023-11-18T09:16:11;99391.09;;;8.89;97.60
7832;BME280;3961;42.058;25.586;2023-11-18T09:18:41;99443.63;;;9.20;96.38
7832;BME280;3961;42.058;25.586;2023-11-18T09:21:08;99449.22;;;9.25;97.35
7832;BME280;3961;42.058;25.586;2023-11-18T09:23:40;99423.50;;;9.21;97.68
7832;BME280;3961;42.058;25.586;2023-11-18T09:26:06;99429.00;;;9.32;97.82
7832;BME280;3961;42.058;25.586;2023-11-18T09:28:34;99420.41;;;9.36;98.30
7832;BME280;3961;42.058;25.586;2023-11-18T09:31:01;99426.50;;;9.31;95.35
7832;BME280;3961;42.058;25.586;2023-11-18T09:33:29;99422.16;;;9.30;96.37
7832;BME280;3961;42.058;25.586;2023-11-18T09:38:28;99411.44;;;9.35;96.15
7832;BME280;3961;42.058;25.586;2023-11-18T09:40:54;99410.88;;;9.45;95.52
7832;BME280;3961;42.058;25.586;2023-11-18T09:43:20;99415.00;;;9.47;96.04
7832;BME280;3961;42.058;25.586;2023-11-18T09:45:55;99399.94;;;9.33;95.64
7832;BME280;3961;42.058;25.586;2023-11-18T09:48:22;99409.22;;;9.25;95.73
7832;BME280;3961;42.058;25.586;2023-11-18T09:50:52;99396.59;;;9.31;93.61
7832;BME280;3961;42.058;25.586;2023-11-18T09:53:18;99397.78;;;9.23;93.17
7832;BME280;3961;42.058;25.586;2023-11-18T09:56:06;99396.56;;;9.19;94.61
7832;BME280;3961;42.058;25.586;2023-11-18T09:58:40;99398.91;;;9.16;94.51
7832;BME280;3961;42.058;25.586;2023-11-18T10:01:13;99383.91;;;9.13;94.92
7832;BME280;3961;42.058;25.586;2023-11-18T10:03:44;99370.53;;;9.12;96.09
7832;BME280;3961;42.058;25.586;2023-11-18T10:06:12;99372.53;;;9.16;94.92
7832;BME280;3961;42.058;25.586;2023-11-18T10:08:40;99389.84;;;9.22;94.86
7832;BME280;3961;42.058;25.586;2023-11-18T10:11:06;99381.91;;;9.20;95.12
7832;BME280;3961;42.058;25.586;2023-11-18T10:13:37;99372.47;;;9.23;95.46
7832;BME280;3961;42.058;25.586;2023-11-18T10:16:07;99375.19;;;9.23;96.01
7832;BME280;3961;42.058;25.586;2023-11-18T10:18:33;99336.97;;;8.88;94.27
7832;BME280;3961;42.058;25.586;2023-11-18T10:21:02;99384.88;;;9.19;94.38
7832;BME280;3961;42.058;25.586;2023-11-18T10:23:29;99376.56;;;9.14;94.54
7832;BME280;3961;42.058;25.586;2023-11-18T10:26:00;99376.25;;;9.22;94.70
7832;BME280;3961;42.058;25.586;2023-11-18T10:28:30;99372.81;;;9.26;93.98
7832;BME280;3961;42.058;25.586;2023-11-18T10:31:01;99368.97;;;9.34;93.36
7832;BME280;3961;42.058;25.586;2023-11-18T10:33:39;99376.56;;;9.44;94.74
7832;BME280;3961;42.058;25.586;2023-11-18T10:36:22;99381.06;;;9.50;95.82
7832;BME280;3961;42.058;25.586;2023-11-18T10:38:49;99384.16;;;9.53;94.71
7832;BME280;3961;42.058;25.586;2023-11-18T10:41:18;99381.56;;;9.58;92.41
7832;BME280;3961;42.058;25.586;2023-11-18T10:43:44;99373.19;;;9.60;93.21
7832;BME280;3961;42.058;25.586;2023-11-18T10:46:14;99378.00;;;9.58;93.42
7832;BME280;3961;42.058;25.586;2023-11-18T10:48:41;99354.75;;;9.32;93.60
7832;BME280;3961;42.058;25.586;2023-11-18T10:51:08;99388.19;;;9.51;92.60
7832;BME280;3961;42.058;25.586;2023-11-18T10:53:34;99353.91;;;9.31;93.23
7832;BME280;3961;42.058;25.586;2023-11-18T10:56:04;99366.81;;;9.36;93.21
7832;BME280;3961;42.058;25.586;2023-11-18T10:58:37;99366.59;;;9.38;93.41
7832;BME280;3961;42.058;25.586;2023-11-18T11:01:06;99375.50;;;9.45;94.44
7832;BME280;3961;42.058;25.586;2023-11-18T11:03:55;99368.75;;;9.47;93.60
7832;BME280;3961;42.058;25.586;2023-11-18T11:06:23;99373.13;;;9.48;92.43
7832;BME280;3961;42.058;25.586;2023-11-18T11:08:50;99375.03;;;9.48;93.12
7832;BME280;3961;42.058;25.586;2023-11-18T11:11:20;99357.16;;;9.40;94.17
7832;BME280;3961;42.058;25.586;2023-11-18T11:13:56;99384.09;;;9.42;93.17
7832;BME280;3961;42.058;25.586;2023-11-18T11:16:38;99377.75;;;9.48;94.06
7832;BME280;3961;42.058;25.586;2023-11-18T11:19:15;99387.78;;;9.47;95.35
7832;BME280;3961;42.058;25.586;2023-11-18T11:22:04;99378.22;;;9.45;95.42
7832;BME280;3961;42.058;25.586;2023-11-18T11:27:55;99402.00;;;9.49;94.07
7832;BME280;3961;42.058;25.586;2023-11-18T11:30:44;99378.13;;;9.51;94.76
7832;BME280;3961;42.058;25.586;2023-11-18T11:33:14;99388.44;;;9.61;92.55
7832;BME280;3961;42.058;25.586;2023-11-18T11:35:48;99394.72;;;9.61;92.97
7832;BME280;3961;42.058;25.586;2023-11-18T11:38:21;99410.56;;;9.64;92.61
7832;BME280;3961;42.058;25.586;2023-11-18T11:40:48;99396.22;;;9.57;92.06
7832;BME280;3961;42.058;25.586;2023-11-18T11:43:14;99400.78;;;9.75;93.05
7832;BME280;3961;42.058;25.586;2023-11-18T11:45:55;99388.75;;;9.83;91.57
7832;BME280;3961;42.058;25.586;2023-11-18T11:48:25;99397.88;;;9.88;91.53
7832;BME280;3961;42.058;25.586;2023-11-18T11:53:26;99388.75;;;9.83;90.84
7832;BME280;3961;42.058;25.586;2023-11-18T11:55:54;99384.22;;;9.77;89.91
7832;BME280;3961;42.058;25.586;2023-11-18T11:58:34;99403.75;;;9.85;90.94
7832;BME280;3961;42.058;25.586;2023-11-18T12:01:37;99390.38;;;9.72;91.37
7832;BME280;3961;42.058;25.586;2023-11-18T12:04:15;99390.16;;;9.85;92.47
7832;BME280;3961;42.058;25.586;2023-11-18T12:06:47;99391.94;;;9.91;91.54
7832;BME280;3961;42.058;25.586;2023-11-18T12:09:14;99372.38;;;9.71;91.13
7832;BME280;3961;42.058;25.586;2023-11-18T12:11:46;99381.53;;;10.00;91.22
7832;BME280;3961;42.058;25.586;2023-11-18T12:14:15;99387.69;;;9.95;90.37
7832;BME280;3961;42.058;25.586;2023-11-18T12:19:31;99389.00;;;9.93;90.36
7832;BME280;3961;42.058;25.586;2023-11-18T12:22:13;99400.34;;;10.01;90.59
7832;BME280;3961;42.058;25.586;2023-11-18T12:25:31;99353.22;;;9.78;89.85
7832;BME280;3961;42.058;25.586;2023-11-18T12:27:45;99404.88;;;10.07;89.63
7832;BME280;3961;42.058;25.586;2023-11-18T12:33:05;99385.91;;;10.01;89.69
7832;BME280;3961;42.058;25.586;2023-11-18T12:35:50;99414.69;;;10.08;89.77
7832;BME280;3961;42.058;25.586;2023-11-18T12:41:34;99409.00;;;9.98;89.58
7832;BME280;3961;42.058;25.586;2023-11-18T12:47:02;99410.81;;;10.16;88.95
7832;BME280;3961;42.058;25.586;2023-11-18T12:49:44;99389.44;;;9.78;88.95
7832;BME280;3961;42.058;25.586;2023-11-18T12:52:11;99418.47;;;10.07;89.31
7832;BME280;3961;42.058;25.586;2023-11-18T12:54:40;99420.47;;;10.00;88.71
7832;BME280;3961;42.058;25.586;2023-11-18T12:57:10;99414.19;;;10.00;88.99
7832;BME280;3961;42.058;25.586;2023-11-18T12:59:40;99425.50;;;10.15;90.13
7832;BME280;3961;42.058;25.586;2023-11-18T13:02:12;99425.28;;;10.28;88.79
7832;BME280;3961;42.058;25.586;2023-11-18T13:04:48;99428.66;;;10.12;87.03
7832;BME280;3961;42.058;25.586;2023-11-18T13:07:18;99418.25;;;10.09;87.35
7832;BME280;3961;42.058;25.586;2023-11-18T13:09:46;99424.16;;;10.06;87.30
7832;BME280;3961;42.058;25.586;2023-11-18T13:12:14;99413.63;;;10.09;88.52
7832;BME280;3961;42.058;25.586;2023-11-18T13:14:46;99427.47;;;10.08;88.99
7832;BME280;3961;42.058;25.586;2023-11-18T13:17:14;99408.41;;;10.08;89.28
7832;BME280;3961;42.058;25.586;2023-11-18T13:19:42;99411.25;;;10.01;89.67
7832;BME280;3961;42.058;25.586;2023-11-18T13:22:10;99406.97;;;10.05;88.83
7832;BME280;3961;42.058;25.586;2023-11-18T13:24:37;99432.81;;;10.03;88.11
7832;BME280;3961;42.058;25.586;2023-11-18T13:27:07;99447.69;;;10.00;87.83
7832;BME280;3961;42.058;25.586;2023-11-18T13:29:38;99441.19;;;10.01;88.86
7832;BME280;3961;42.058;25.586;2023-11-18T13:32:09;99441.28;;;9.95;87.41
7832;BME280;3961;42.058;25.586;2023-11-18T13:34:35;99454.19;;;9.99;87.78
7832;BME280;3961;42.058;25.586;2023-11-18T13:37:06;99452.31;;;9.88;87.91
7832;BME280;3961;42.058;25.586;2023-11-18T13:39:33;99470.56;;;9.69;86.91